Time;durP1;ratioP1;P1;durP2;ratioP2;P2;SDS_P1;SDS_P2;PMS_P1;PMS_P2;Temp;Humidity;BMP_temperature;BMP_pressure;BME280_temperature;BME280_humidity;BME280_pressure;Samples;Min_cycle;Max_cycle;Signal;HPM_P1;HPM_P2
2022/05/27 00:01:35;;;;;;;23.58;3.80;;;;;;;;;;5042335;28;20511;-50
2022/05/27 00:04:03;;;;;;;29.65;4.32;;;;;;;;;;5039520;28;20440;-50
2022/05/27 00:06:36;;;;;;;27.40;3.55;;;;;;;;;;5041038;28;20111;-44
2022/05/27 00:09:02;;;;;;;20.25;3.25;;;;;;;;;;5041409;28;20084;-50
2022/05/27 00:11:29;;;;;;;19.52;3.55;;;;;;;;;;5039582;28;20091;-51
2022/05/27 00:14:01;;;;;;;22.02;3.58;;;;;;;;;;5036895;28;20080;-55
2022/05/27 00:16:28;;;;;;;28.42;3.55;;;;;;;;;;5042814;28;20570;-53
2022/05/27 00:18:55;;;;;;;26.02;4.38;;;;;;;;;;5038254;28;20148;-53
2022/05/27 00:21:29;;;;;;;26.48;4.60;;;;;;;;;;5042340;28;20115;-47
2022/05/27 00:23:55;;;;;;;23.40;4.28;;;;;;;;;;5045028;28;20144;-52
2022/05/27 00:26:21;;;;;;;31.00;3.97;;;;;;;;;;5055282;28;22238;-52
2022/05/27 00:28:55;;;;;;;31.30;4.85;;;;;;;;;;5062608;28;20110;-52
2022/05/27 00:31:27;;;;;;;23.23;3.22;;;;;;;;;;5062510;28;20500;-55
2022/05/27 00:33:54;;;;;;;27.35;4.13;;;;;;;;;;5056530;28;20091;-53
2022/05/27 00:36:27;;;;;;;35.47;4.05;;;;;;;;;;5046984;28;20044;-57
2022/05/27 00:38:54;;;;;;;21.60;4.00;;;;;;;;;;5062771;28;20089;-57
2022/05/27 00:41:20;;;;;;;25.90;4.20;;;;;;;;;;5056492;28;20504;-58
2022/05/27 00:43:54;;;;;;;26.63;4.22;;;;;;;;;;5059458;28;20460;-55
2022/05/27 00:46:22;;;;;;;27.52;3.65;;;;;;;;;;5063020;28;20074;-55
2022/05/27 00:48:51;;;;;;;22.15;3.53;;;;;;;;;;5058913;28;20152;-56
2022/05/27 00:51:30;;;;;;;26.30;3.95;;;;;;;;;;5052959;28;20175;-53
2022/05/27 00:53:58;;;;;;;28.52;3.65;;;;;;;;;;5060972;28;20044;-54
2022/05/27 00:56:34;;;;;;;20.33;4.13;;;;;;;;;;5059801;28;20080;-57
2022/05/27 00:59:06;;;;;;;23.05;3.30;;;;;;;;;;5060248;28;20545;-54
2022/05/27 01:01:39;;;;;;;31.05;4.13;;;;;;;;;;5042799;28;20084;-55
2022/05/27 01:04:07;;;;;;;21.57;3.50;;;;;;;;;;5059490;28;20076;-55
2022/05/27 01:06:33;;;;;;;;;;;;;;;;;;5060420;28;20288;-57
2022/05/27 01:09:07;;;;;;;35.08;4.47;;;;;;;;;;5058030;28;19960;-50
2022/05/27 01:11:36;;;;;;;22.42;3.47;;;;;;;;;;5059800;28;20105;-54
2022/05/27 01:14:20;;;;;;;22.40;4.10;;;;;;;;;;5060220;28;20496;-55
2022/05/27 01:17:14;;;;;;;26.63;3.85;;;;;;;;;;5059198;28;20057;-50
2022/05/27 01:22:54;;;;;;;21.73;3.10;;;;;;;;;;5056334;28;20072;-52
2022/05/27 01:25:38;;;;;;;24.02;3.50;;;;;;;;;;5058037;28;20504;-55
2022/05/27 01:28:12;;;;;;;23.42;3.90;;;;;;;;;;5057474;28;20061;-50
2022/05/27 01:30:44;;;;;;;29.15;4.97;;;;;;;;;;5062404;28;20136;-46
2022/05/27 01:33:10;;;;;;;33.58;4.38;;;;;;;;;;5057977;28;20551;-56
2022/05/27 01:35:44;;;;;;;25.35;3.92;;;;;;;;;;5061910;28;20048;-56
2022/05/27 01:38:10;;;;;;;23.08;3.92;;;;;;;;;;5058621;28;20130;-55
2022/05/27 01:40:56;;;;;;;34.85;4.25;;;;;;;;;;5053581;28;20607;-56
2022/05/27 01:43:40;;;;;;;25.35;4.60;;;;;;;;;;5037831;28;20472;-53
2022/05/27 01:46:07;;;;;;;23.70;3.83;;;;;;;;;;5042296;28;20103;-55
2022/05/27 01:48:45;;;;;;;20.80;3.67;;;;;;;;;;5057728;28;20060;-56
2022/05/27 01:51:18;;;;;;;31.92;4.13;;;;;;;;;;5061110;28;20210;-58
2022/05/27 01:53:51;;;;;;;28.00;4.20;;;;;;;;;;5057585;28;20049;-56
2022/05/27 01:56:30;;;;;;;28.17;3.80;;;;;;;;;;5062966;28;20049;-58
2022/05/27 01:59:08;;;;;;;36.28;4.43;;;;;;;;;;5065786;28;20131;-56
2022/05/27 02:01:36;;;;;;;30.35;3.95;;;;;;;;;;5063001;28;20076;-58
2022/05/27 02:04:31;;;;;;;28.17;4.45;;;;;;;;;;5062038;28;21094;-58
2022/05/27 02:07:05;;;;;;;28.70;4.40;;;;;;;;;;5064023;28;20079;-50
2022/05/27 02:09:45;;;;;;;30.33;4.05;;;;;;;;;;5067329;28;20397;-47
2022/05/27 02:12:20;;;;;;;24.65;3.90;;;;;;;;;;5063881;28;20097;-51
2022/05/27 02:14:55;;;;;;;26.40;3.58;;;;;;;;;;5041454;28;20112;-50
2022/05/27 02:17:26;;;;;;;14.60;3.25;;;;;;;;;;5065011;28;20535;-47
2022/05/27 02:19:52;;;;;;;36.20;4.20;;;;;;;;;;5063964;28;20175;-53
2022/05/27 02:22:30;;;;;;;25.45;3.97;;;;;;;;;;5064246;28;20151;-52
2022/05/27 02:25:11;;;;;;;20.45;3.35;;;;;;;;;;5060091;28;20511;-51
2022/05/27 02:27:48;;;;;;;25.75;3.60;;;;;;;;;;5063911;28;20495;-57
2022/05/27 02:30:16;;;;;;;22.60;3.33;;;;;;;;;;5062877;28;20150;-55
2022/05/27 02:32:45;;;;;;;28.00;3.92;;;;;;;;;;5056908;28;20136;-56
2022/05/27 02:35:23;;;;;;;29.60;4.38;;;;;;;;;;5062531;28;20072;-55
2022/05/27 02:37:51;;;;;;;25.08;3.97;;;;;;;;;;5062067;28;20153;-57
2022/05/27 02:40:32;;;;;;;31.40;4.53;;;;;;;;;;5062914;28;20084;-56
2022/05/27 02:43:19;;;;;;;20.98;3.85;;;;;;;;;;5060494;28;20563;-56
2022/05/27 02:46:04;;;;;;;41.28;4.35;;;;;;;;;;5063977;28;20063;-48
2022/05/27 02:48:47;;;;;;;24.90;3.97;;;;;;;;;;5063449;28;20064;-53
2022/05/27 02:51:13;;;;;;;19.00;3.70;;;;;;;;;;5056606;28;20144;-54
2022/05/27 02:54:01;;;;;;;24.17;4.43;;;;;;;;;;5059762;28;20276;-55
2022/05/27 02:56:30;;;;;;;21.25;3.97;;;;;;;;;;5066962;28;20087;-55
2022/05/27 02:59:05;;;;;;;26.60;4.00;;;;;;;;;;5042031;28;20088;-56
2022/05/27 03:01:32;;;;;;;23.20;3.80;;;;;;;;;;5062258;28;20103;-52
2022/05/27 03:03:59;;;;;;;31.13;3.80;;;;;;;;;;5062995;28;20083;-58
2022/05/27 03:06:36;;;;;;;21.95;3.97;;;;;;;;;;5061585;28;20142;-53
2022/05/27 03:09:09;;;;;;;30.90;4.40;;;;;;;;;;5061782;28;20049;-59
2022/05/27 03:11:50;;;;;;;18.45;3.95;;;;;;;;;;5038719;28;20144;-59
2022/05/27 03:14:22;;;;;;;32.38;3.88;;;;;;;;;;5038487;28;20508;-59
2022/05/27 03:16:55;;;;;;;18.92;3.67;;;;;;;;;;5044517;28;20072;-58
2022/05/27 03:19:40;;;;;;;32.17;5.10;;;;;;;;;;5060757;28;20063;-59
2022/05/27 03:22:15;;;;;;;22.15;4.55;;;;;;;;;;5041660;28;20510;-59
2022/05/27 03:24:59;;;;;;;19.25;3.95;;;;;;;;;;5056666;28;20076;-53
2022/05/27 03:27:43;;;;;;;23.27;4.40;;;;;;;;;;5040027;28;20142;-53
2022/05/27 03:30:13;;;;;;;26.00;4.35;;;;;;;;;;5042550;28;20103;-53
2022/05/27 03:32:52;;;;;;;29.02;4.63;;;;;;;;;;5041718;28;20089;-53
2022/05/27 03:35:37;;;;;;;23.95;4.50;;;;;;;;;;5040471;28;20524;-52
2022/05/27 03:38:16;;;;;;;22.27;4.10;;;;;;;;;;5040572;28;20598;-51
2022/05/27 03:40:42;;;;;;;20.50;4.70;;;;;;;;;;5041805;28;20054;-52
2022/05/27 03:43:10;;;;;;;27.83;4.53;;;;;;;;;;5038648;28;20076;-53
2022/05/27 03:45:50;;;;;;;28.05;4.82;;;;;;;;;;5036038;28;20083;-58
2022/05/27 03:48:18;;;;;;;20.33;3.95;;;;;;;;;;5059059;28;20483;-58
2022/05/27 03:50:52;;;;;;;28.08;4.18;;;;;;;;;;5059980;28;20500;-59
2022/05/27 03:53:19;;;;;;;21.42;4.25;;;;;;;;;;5060711;28;20081;-57
2022/05/27 03:55:45;;;;;;;27.90;4.63;;;;;;;;;;5058595;28;20053;-58
2022/05/27 03:58:19;;;;;;;23.38;5.30;;;;;;;;;;5037592;28;20081;-58
2022/05/27 04:00:45;;;;;;;38.03;5.22;;;;;;;;;;5063004;28;20084;-58
2022/05/27 04:03:12;;;;;;;30.57;5.13;;;;;;;;;;5061286;28;20048;-59
2022/05/27 04:05:45;;;;;;;29.15;4.55;;;;;;;;;;5061043;28;20076;-51
2022/05/27 04:08:11;;;;;;;22.45;4.20;;;;;;;;;;5056490;28;20057;-49
2022/05/27 04:10:38;;;;;;;38.47;4.75;;;;;;;;;;5062975;28;20100;-53
2022/05/27 04:13:11;;;;;;;30.63;4.88;;;;;;;;;;5062202;28;20052;-54
2022/05/27 04:15:37;;;;;;;32.42;5.82;;;;;;;;;;5059454;28;20110;-50
2022/05/27 04:18:04;;;;;;;38.63;4.97;;;;;;;;;;5057757;28;20080;-48
2022/05/27 04:20:37;;;;;;;22.27;4.38;;;;;;;;;;5062141;28;20498;-55
2022/05/27 04:23:03;;;;;;;28.98;4.75;;;;;;;;;;5061336;28;20048;-55
2022/05/27 04:25:30;;;;;;;19.08;4.95;;;;;;;;;;5053575;28;20601;-57
2022/05/27 04:28:03;;;;;;;28.88;4.70;;;;;;;;;;5019089;28;20136;-58
2022/05/27 04:30:29;;;;;;;27.30;5.07;;;;;;;;;;5020841;28;20077;-58
2022/05/27 04:32:56;;;;;;;30.05;5.78;;;;;;;;;;5019501;28;20501;-59
2022/05/27 04:35:30;;;;;;;25.98;5.03;;;;;;;;;;5020207;28;20096;-57
2022/05/27 04:37:56;;;;;;;21.38;3.92;;;;;;;;;;5016461;28;20360;-59
2022/05/27 04:40:22;;;;;;;27.65;4.63;;;;;;;;;;5023029;28;20145;-53
2022/05/27 04:42:56;;;;;;;27.63;4.50;;;;;;;;;;5021933;28;20504;-54
2022/05/27 04:45:23;;;;;;;24.38;4.13;;;;;;;;;;5015802;28;20073;-55
2022/05/27 04:47:49;;;;;;;26.37;4.40;;;;;;;;;;5020049;28;20045;-56
2022/05/27 04:50:23;;;;;;;20.25;3.80;;;;;;;;;;5023354;28;20053;-54
2022/05/27 04:52:50;;;;;;;21.60;4.25;;;;;;;;;;5022100;28;20076;-53
2022/05/27 04:55:17;;;;;;;21.85;3.70;;;;;;;;;;5021173;28;20144;-56
2022/05/27 04:57:53;;;;;;;19.10;3.28;;;;;;;;;;5020307;28;20088;-50
2022/05/27 05:00:22;;;;;;;17.80;3.05;;;;;;;;;;5018055;28;20077;-62
2022/05/27 05:02:48;;;;;;;12.23;2.70;;;;;;;;;;5019012;28;20053;-54
2022/05/27 05:05:23;;;;;;;13.30;2.47;;;;;;;;;;5020600;28;20049;-51
2022/05/27 05:07:54;;;;;;;15.50;2.53;;;;;;;;;;5021473;28;20050;-52
2022/05/27 05:10:22;;;;;;;19.05;3.20;;;;;;;;;;5018362;28;20149;-52
2022/05/27 05:12:55;;;;;;;10.20;2.83;;;;;;;;;;5022237;28;20123;-54
2022/05/27 05:15:22;;;;;;;14.55;3.42;;;;;;;;;;5019465;28;20081;-55
2022/05/27 05:17:49;;;;;;;10.48;2.70;;;;;;;;;;5017546;28;20100;-61
2022/05/27 05:20:24;;;;;;;16.15;3.33;;;;;;;;;;5014587;28;20049;-62
2022/05/27 05:22:50;;;;;;;11.88;2.42;;;;;;;;;;5019429;28;20053;-58
2022/05/27 05:25:17;;;;;;;15.38;2.97;;;;;;;;;;5017406;28;20085;-56
2022/05/27 05:27:56;;;;;;;13.15;2.35;;;;;;;;;;5052343;28;20080;-58
2022/05/27 05:30:24;;;;;;;16.65;2.60;;;;;;;;;;5057737;28;20139;-58
2022/05/27 05:32:57;;;;;;;19.13;3.00;;;;;;;;;;5060715;28;20079;-54
2022/05/27 05:35:23;;;;;;;7.55;2.17;;;;;;;;;;5058732;28;20139;-57
2022/05/27 05:37:50;;;;;;;18.73;2.80;;;;;;;;;;5058474;28;20052;-61
2022/05/27 05:40:25;;;;;;;15.15;2.70;;;;;;;;;;5038561;28;20069;-61
2022/05/27 05:42:51;;;;;;;15.30;2.75;;;;;;;;;;5039786;28;20087;-60
2022/05/27 05:45:18;;;;;;;7.25;2.53;;;;;;;;;;5042517;28;20595;-62
2022/05/27 05:47:52;;;;;;;14.95;2.47;;;;;;;;;;5039002;28;20126;-60
2022/05/27 05:50:18;;;;;;;13.63;2.67;;;;;;;;;;5037511;28;20088;-61
2022/05/27 05:52:45;;;;;;;10.43;2.10;;;;;;;;;;5041250;28;20103;-61
2022/05/27 05:55:19;;;;;;;8.85;2.53;;;;;;;;;;5036288;28;20149;-48
2022/05/27 05:57:47;;;;;;;10.98;2.40;;;;;;;;;;5039214;28;20103;-56
2022/05/27 06:00:16;;;;;;;13.77;2.45;;;;;;;;;;5036246;28;20080;-52
2022/05/27 06:02:49;;;;;;;10.25;2.00;;;;;;;;;;5038633;28;20048;-54
2022/05/27 06:05:16;;;;;;;8.25;2.28;;;;;;;;;;5041195;28;20053;-52
2022/05/27 06:07:43;;;;;;;10.93;2.33;;;;;;;;;;5040832;28;20053;-54
2022/05/27 06:10:17;;;;;;;18.40;2.75;;;;;;;;;;5035871;28;20111;-49
2022/05/27 06:12:43;;;;;;;18.88;3.13;;;;;;;;;;5040318;28;20100;-53
2022/05/27 06:15:19;;;;;;;12.07;2.63;;;;;;;;;;5040632;28;20048;-55
2022/05/27 06:17:52;;;;;;;7.60;2.30;;;;;;;;;;5035923;28;20077;-57
2022/05/27 06:20:18;;;;;;;11.93;2.70;;;;;;;;;;5037505;28;20081;-56
2022/05/27 06:22:45;;;;;;;14.93;2.83;;;;;;;;;;5039255;28;20096;-53
2022/05/27 06:25:34;;;;;;;14.15;2.70;;;;;;;;;;5036140;28;20374;-56
2022/05/27 06:36:37;;;;;;;13.75;2.72;;;;;;;;;;5038991;28;20104;-59
2022/05/27 06:39:04;;;;;;;11.93;2.70;;;;;;;;;;5040219;28;20107;-52
2022/05/27 06:41:31;;;;;;;15.88;3.13;;;;;;;;;;5040986;28;20053;-48
2022/05/27 06:44:04;;;;;;;8.55;2.47;;;;;;;;;;5043760;28;20516;-50
2022/05/27 06:46:31;;;;;;;17.53;2.50;;;;;;;;;;5041737;28;20123;-51
2022/05/27 06:48:58;;;;;;;15.23;2.50;;;;;;;;;;5042100;28;20288;-50
2022/05/27 06:51:31;;;;;;;20.02;3.50;;;;;;;;;;5039902;28;20088;-49
2022/05/27 06:53:58;;;;;;;9.13;2.03;;;;;;;;;;5040557;28;20142;-50
2022/05/27 06:56:24;;;;;;;13.15;3.20;;;;;;;;;;5041817;28;20046;-60
2022/05/27 06:58:57;;;;;;;10.00;2.42;;;;;;;;;;5043106;28;20084;-60
2022/05/27 07:01:23;;;;;;;9.52;2.45;;;;;;;;;;5040299;28;20085;-61
2022/05/27 07:03:50;;;;;;;13.53;2.63;;;;;;;;;;5043319;28;20496;-61
2022/05/27 07:06:25;;;;;;;9.65;2.35;;;;;;;;;;5036643;28;20077;-60
2022/05/27 07:08:52;;;;;;;17.00;2.50;;;;;;;;;;5034626;28;20052;-60
2022/05/27 07:11:18;;;;;;;17.75;2.75;;;;;;;;;;5042359;28;20077;-59
2022/05/27 07:13:52;;;;;;;15.30;2.58;;;;;;;;;;5038729;28;20123;-59
2022/05/27 07:16:18;;;;;;;6.78;2.10;;;;;;;;;;5039030;28;20053;-58
2022/05/27 07:18:45;;;;;;;15.52;2.83;;;;;;;;;;5037642;28;20539;-59
2022/05/27 07:21:18;;;;;;;10.18;1.75;;;;;;;;;;5038949;28;20077;-57
2022/05/27 07:23:45;;;;;;;11.10;2.22;;;;;;;;;;5034766;28;20073;-61
2022/05/27 07:26:11;;;;;;;12.77;2.22;;;;;;;;;;5040536;28;20087;-58
2022/05/27 07:28:45;;;;;;;11.35;2.03;;;;;;;;;;5038757;28;20081;-58
2022/05/27 07:31:11;;;;;;;10.32;2.10;;;;;;;;;;5039919;28;20168;-51
2022/05/27 07:33:38;;;;;;;9.60;1.80;;;;;;;;;;5041173;28;20149;-56
2022/05/27 07:36:11;;;;;;;10.80;2.00;;;;;;;;;;5034433;28;20132;-50
2022/05/27 07:38:38;;;;;;;10.05;1.30;;;;;;;;;;5042059;28;20076;-53
2022/05/27 07:41:05;;;;;;;11.13;2.05;;;;;;;;;;5022862;28;20078;-54
2022/05/27 07:43:38;;;;;;;9.20;1.90;;;;;;;;;;5029304;28;20053;-50
2022/05/27 07:46:06;;;;;;;7.35;1.65;;;;;;;;;;5039646;28;20056;-51
2022/05/27 07:48:32;;;;;;;6.82;1.98;;;;;;;;;;5043620;28;20080;-51
2022/05/27 07:51:09;;;;;;;7.63;1.42;;;;;;;;;;5037521;28;20088;-58
2022/05/27 07:53:38;;;;;;;8.23;1.95;;;;;;;;;;5038920;28;20080;-51
2022/05/27 07:56:08;;;;;;;8.30;1.80;;;;;;;;;;5038420;28;20085;-52
2022/05/27 07:58:42;;;;;;;5.00;1.73;;;;;;;;;;5040051;28;20080;-55
2022/05/27 08:01:08;;;;;;;4.72;1.27;;;;;;;;;;5040703;28;20572;-54
2022/05/27 08:03:35;;;;;;;10.32;2.03;;;;;;;;;;5030953;28;20057;-55
2022/05/27 08:06:09;;;;;;;9.55;1.90;;;;;;;;;;5038241;28;20559;-53
2022/05/27 08:08:36;;;;;;;12.18;2.40;;;;;;;;;;5041773;28;20606;-57
2022/05/27 08:11:02;;;;;;;9.95;1.63;;;;;;;;;;5039786;28;20088;-55
2022/05/27 08:13:36;;;;;;;8.27;1.50;;;;;;;;;;5038875;28;20080;-61
2022/05/27 08:16:03;;;;;;;11.07;2.17;;;;;;;;;;5036704;28;20057;-61
2022/05/27 08:18:29;;;;;;;12.85;1.80;;;;;;;;;;5021517;28;20053;-61
2022/05/27 08:21:08;;;;;;;7.35;1.50;;;;;;;;;;5039244;28;20497;-61
2022/05/27 08:23:34;;;;;;;6.80;1.95;;;;;;;;;;5036983;28;20535;-60
2022/05/27 08:26:01;;;;;;;8.93;1.70;;;;;;;;;;5041330;28;20490;-60
2022/05/27 08:28:42;;;;;;;6.60;1.70;;;;;;;;;;5038685;28;20069;-51
2022/05/27 08:31:09;;;;;;;6.25;1.60;;;;;;;;;;5028574;28;20099;-60
2022/05/27 08:39:21;;;;;;;16.00;2.15;;;;;;;;;;5021955;28;20662;-52
2022/05/27 08:41:57;;;;;;;7.05;1.50;;;;;;;;;;5036595;28;20571;-50
2022/05/27 08:44:47;;;;;;;7.45;1.75;;;;;;;;;;5041752;28;20044;-51
2022/05/27 08:47:20;;;;;;;6.85;1.70;;;;;;;;;;5037785;28;20140;-57
2022/05/27 08:50:02;;;;;;;9.75;1.77;;;;;;;;;;5037722;28;20087;-60
2022/05/27 08:52:29;;;;;;;7.10;1.40;;;;;;;;;;5035703;28;20053;-60
2022/05/27 08:59:26;;;;;;;7.85;1.70;;;;;;;;;;5036770;28;20084;-60
2022/05/27 09:01:10;;;;;;;6.90;1.50;;;;;;;;;;5038886;28;20044;-60
2022/05/27 09:03:54;;;;;;;6.20;1.40;;;;;;;;;;5036842;28;20049;-60
2022/05/27 09:06:32;;;;;;;9.20;1.48;;;;;;;;;;5038196;28;20132;-56
2022/05/27 09:08:59;;;;;;;4.95;1.20;;;;;;;;;;5037402;28;20052;-59
2022/05/27 09:11:33;;;;;;;5.97;1.48;;;;;;;;;;5036839;28;20092;-55
2022/05/27 09:14:20;;;;;;;9.85;1.60;;;;;;;;;;5040782;28;20111;-54
2022/05/27 09:17:01;;;;;;;6.63;1.80;;;;;;;;;;5036555;28;20048;-56
2022/05/27 09:19:46;;;;;;;8.75;1.70;;;;;;;;;;5042339;28;20114;-56
2022/05/27 09:22:15;;;;;;;8.68;1.98;;;;;;;;;;5037596;28;20088;-56
2022/05/27 09:25:11;;;;;;;10.25;1.85;;;;;;;;;;5035209;28;20085;-59
2022/05/27 09:27:53;;;;;;;5.97;1.45;;;;;;;;;;5038833;28;20640;-54
2022/05/27 09:30:26;;;;;;;3.60;1.23;;;;;;;;;;5036523;28;20088;-60
2022/05/27 09:32:54;;;;;;;4.55;1.30;;;;;;;;;;5036890;28;20057;-59
2022/05/27 09:35:47;;;;;;;7.68;1.67;;;;;;;;;;5032441;28;20497;-60
2022/05/27 09:38:30;;;;;;;4.30;1.65;;;;;;;;;;5010714;28;20152;-60
2022/05/27 09:41:23;;;;;;;10.10;1.67;;;;;;;;;;5036603;28;20045;-60
2022/05/27 09:44:06;;;;;;;5.97;1.60;;;;;;;;;;5035825;28;20111;-55
2022/05/27 09:46:33;;;;;;;4.20;1.42;;;;;;;;;;5036925;28;20085;-54
2022/05/27 09:48:59;;;;;;;8.65;1.67;;;;;;;;;;5037310;28;20049;-52
2022/05/27 09:51:32;;;;;;;5.05;1.17;;;;;;;;;;5036783;28;20119;-51
2022/05/27 09:54:17;;;;;;;9.25;1.52;;;;;;;;;;5035238;28;20099;-49
2022/05/27 09:56:58;;;;;;;7.60;1.00;;;;;;;;;;5039077;28;20084;-48
2022/05/27 09:59:41;;;;;;;9.60;1.90;;;;;;;;;;5039227;28;20057;-50
2022/05/27 10:02:28;;;;;;;5.57;1.40;;;;;;;;;;5039567;28;20041;-47
2022/05/27 10:05:05;;;;;;;9.35;1.73;;;;;;;;;;5039500;28;20084;-53
2022/05/27 10:07:45;;;;;;;5.13;1.20;;;;;;;;;;5041991;28;20487;-60
2022/05/27 10:10:17;;;;;;;5.50;0.95;;;;;;;;;;5034046;28;20139;-59
2022/05/27 10:13:16;;;;;;;4.00;0.93;;;;;;;;;;5039129;28;20052;-59
2022/05/27 10:15:43;;;;;;;6.63;1.17;;;;;;;;;;5041352;28;20499;-59
2022/05/27 10:18:17;;;;;;;3.75;1.00;;;;;;;;;;5036161;28;20041;-60
2022/05/27 10:20:58;;;;;;;6.90;1.52;;;;;;;;;;5040655;28;20057;-59
2022/05/27 10:23:31;;;;;;;;;;;;;;;;;;5033234;28;20079;-53
2022/05/27 10:26:04;;;;;;;5.15;1.38;;;;;;;;;;5037461;28;19975;-51
2022/05/27 10:28:54;;;;;;;4.05;1.25;;;;;;;;;;5016922;28;20497;-54
2022/05/27 10:31:21;;;;;;;5.35;1.33;;;;;;;;;;5024798;28;20084;-53
2022/05/27 10:33:55;;;;;;;4.18;1.10;;;;;;;;;;5022715;28;20053;-50
2022/05/27 10:36:27;;;;;;;6.35;1.05;;;;;;;;;;5019816;28;20091;-52
2022/05/27 10:38:59;;;;;;;5.38;1.15;;;;;;;;;;5020666;28;20058;-53
2022/05/27 10:41:32;;;;;;;;;;;;;;;;;;5010213;28;20061;-53
2022/05/27 10:44:19;;;;;;;6.78;1.20;;;;;;;;;;5018565;28;19964;-51
2022/05/27 10:46:53;;;;;;;6.20;1.23;;;;;;;;;;5020752;28;20092;-56
2022/05/27 10:49:29;;;;;;;5.63;1.10;;;;;;;;;;5017243;28;20569;-57
2022/05/27 10:52:08;;;;;;;4.47;1.27;;;;;;;;;;5019309;28;20050;-56
2022/05/27 10:54:53;;;;;;;3.03;1.05;;;;;;;;;;5023469;28;20209;-55
2022/05/27 11:04:02;;;;;;;4.55;1.35;;;;;;;;;;5019671;28;20073;-52
2022/05/27 11:06:37;;;;;;;6.53;1.50;;;;;;;;;;5022364;28;20049;-50
2022/05/27 11:09:19;;;;;;;2.25;1.00;;;;;;;;;;5022110;28;20088;-47
2022/05/27 11:11:59;;;;;;;3.95;0.90;;;;;;;;;;5020933;28;20093;-51
2022/05/27 11:17:22;;;;;;;9.35;1.42;;;;;;;;;;5021663;28;20088;-52
2022/05/27 11:20:07;;;;;;;5.20;1.10;;;;;;;;;;5020049;28;20053;-50
2022/05/27 11:22:39;;;;;;;5.18;1.27;;;;;;;;;;5022148;28;20108;-59
2022/05/27 11:25:15;;;;;;;3.00;1.10;;;;;;;;;;5018233;28;20103;-55
2022/05/27 11:28:00;;;;;;;5.57;1.27;;;;;;;;;;5020793;28;20053;-51
2022/05/27 11:30:48;;;;;;;2.75;1.10;;;;;;;;;;5020510;28;20081;-53
2022/05/27 11:33:24;;;;;;;3.28;0.90;;;;;;;;;;5019093;28;20046;-52
2022/05/27 11:36:12;;;;;;;3.13;1.00;;;;;;;;;;5015803;28;20054;-55
2022/05/27 11:38:48;;;;;;;6.30;1.30;;;;;;;;;;5016962;28;20149;-51
2022/05/27 11:41:29;;;;;;;5.15;1.38;;;;;;;;;;5019977;28;20147;-50
2022/05/27 11:43:59;;;;;;;4.05;1.33;;;;;;;;;;5020063;28;20068;-47
2022/05/27 11:46:35;;;;;;;4.88;1.30;;;;;;;;;;5023471;28;20096;-51
2022/05/27 11:49:20;;;;;;;6.60;1.40;;;;;;;;;;5019694;28;20045;-49
2022/05/27 11:52:02;;;;;;;4.30;1.10;;;;;;;;;;5021225;28;20112;-50
2022/05/27 11:54:37;;;;;;;3.72;1.40;;;;;;;;;;5020757;28;20097;-48
2022/05/27 11:57:19;;;;;;;3.83;1.20;;;;;;;;;;5019304;28;20089;-56
2022/05/27 11:59:49;;;;;;;3.00;1.00;;;;;;;;;;5022288;28;20132;-55
2022/05/27 12:02:38;;;;;;;8.80;1.33;;;;;;;;;;5023921;28;20053;-52
2022/05/27 12:05:12;;;;;;;11.10;1.17;;;;;;;;;;5017502;28;20065;-47
2022/05/27 12:07:49;;;;;;;2.45;0.98;;;;;;;;;;5015067;28;20112;-46
2022/05/27 12:10:34;;;;;;;1.90;0.95;;;;;;;;;;5019023;28;20477;-52
2022/05/27 12:13:17;;;;;;;2.55;1.10;;;;;;;;;;5016363;28;20152;-51
2022/05/27 12:15:46;;;;;;;5.43;1.23;;;;;;;;;;5022004;28;20091;-50
2022/05/27 12:18:25;;;;;;;4.88;1.13;;;;;;;;;;5019166;28;20045;-54
2022/05/27 12:20:51;;;;;;;3.90;1.05;;;;;;;;;;5019558;28;20089;-57
2022/05/27 12:23:20;;;;;;;5.25;1.20;;;;;;;;;;5019313;28;20139;-57
2022/05/27 12:25:54;;;;;;;6.32;1.20;;;;;;;;;;5014505;28;20096;-56
2022/05/27 12:28:21;;;;;;;;;;;;;;;;;;5019010;28;20097;-56
2022/05/27 12:30:55;;;;;;;6.72;1.38;;;;;;;;;;5004152;28;20003;-57
2022/05/27 12:33:29;;;;;;;2.78;0.82;;;;;;;;;;5012195;28;20581;-56
2022/05/27 12:36:01;;;;;;;5.22;1.20;;;;;;;;;;5018842;28;20057;-51
2022/05/27 12:38:37;;;;;;;7.15;1.55;;;;;;;;;;5016523;28;20108;-53
2022/05/27 12:41:04;;;;;;;5.10;1.30;;;;;;;;;;5014907;28;20091;-52
2022/05/27 12:43:38;;;;;;;7.57;1.35;;;;;;;;;;5019687;28;20092;-50
2022/05/27 12:46:14;;;;;;;3.83;1.15;;;;;;;;;;5016968;28;20505;-53
2022/05/27 12:48:40;;;;;;;5.05;1.20;;;;;;;;;;5019445;28;20446;-53
2022/05/27 12:51:08;;;;;;;6.75;1.23;;;;;;;;;;5020555;28;20093;-53
2022/05/27 12:53:46;;;;;;;5.20;1.10;;;;;;;;;;5018819;28;20053;-53
2022/05/27 13:02:19;;;;;;;9.90;1.55;;;;;;;;;;5021001;28;20089;-58
2022/05/27 13:04:53;;;;;;;6.78;1.70;;;;;;;;;;5017653;28;20132;-59
2022/05/27 13:07:20;;;;;;;;;;;;;;;;;;5019885;28;20057;-59
2022/05/27 13:09:48;;;;;;;5.68;1.08;;;;;;;;;;5016006;28;19968;-59
2022/05/27 13:12:40;;;;;;;9.10;1.50;;;;;;;;;;5019305;28;20156;-59
2022/05/27 13:15:08;;;;;;;4.78;1.30;;;;;;;;;;5015160;28;20088;-55
2022/05/27 13:17:49;;;;;;;5.63;1.40;;;;;;;;;;5017061;28;20073;-58
2022/05/27 13:20:19;;;;;;;9.57;1.45;;;;;;;;;;5018454;28;20116;-58
2022/05/27 15:11:28;;;;;;;6.30;1.85;;;;;;;;;;5033504;28;20479;-56
2022/05/27 15:14:03;;;;;;;;;;;;;;;;;;5058884;28;20122;-56
2022/05/27 15:16:33;;;;;;;7.80;1.73;;;;;;;;;;5055142;28;20019;-55
2022/05/27 15:19:03;;;;;;;7.72;1.67;;;;;;;;;;5054605;28;20068;-53
2022/05/27 15:21:41;;;;;;;9.52;2.17;;;;;;;;;;5061813;28;20045;-57
2022/05/27 15:24:10;;;;;;;6.25;2.03;;;;;;;;;;5060903;28;20110;-56
2022/05/27 15:35:25;;;;;;;4.20;1.42;;;;;;;;;;5056540;28;20488;-56
2022/05/27 15:37:59;;;;;;;6.25;1.58;;;;;;;;;;5060893;28;20076;-58
2022/05/27 15:40:25;;;;;;;9.57;1.33;;;;;;;;;;5063063;28;20084;-58
2022/05/27 15:42:52;;;;;;;5.57;1.52;;;;;;;;;;5060904;28;20060;-58
2022/05/27 15:45:26;;;;;;;5.38;1.33;;;;;;;;;;5059765;28;20501;-59
2022/05/27 15:47:52;;;;;;;6.72;1.60;;;;;;;;;;5061404;28;20485;-56
2022/05/27 15:50:28;;;;;;;5.68;1.98;;;;;;;;;;5060130;28;20068;-50
2022/05/27 15:53:01;;;;;;;8.43;1.90;;;;;;;;;;5061337;28;20122;-49
2022/05/27 15:55:28;;;;;;;12.30;1.63;;;;;;;;;;5061082;28;20715;-51
2022/05/27 15:57:54;;;;;;;9.30;2.33;;;;;;;;;;5057822;28;20504;-50
2022/05/27 16:00:27;;;;;;;11.07;2.05;;;;;;;;;;5058629;28;20052;-47
2022/05/27 16:02:54;;;;;;;6.55;2.30;;;;;;;;;;5063701;28;21052;-52
2022/05/27 16:05:20;;;;;;;8.07;2.22;;;;;;;;;;5056237;28;20049;-56
2022/05/27 16:07:54;;;;;;;10.68;2.40;;;;;;;;;;5058029;28;20562;-54
2022/05/27 16:10:34;;;;;;;8.88;1.92;;;;;;;;;;5060133;28;20087;-56
2022/05/27 16:13:08;;;;;;;12.02;2.38;;;;;;;;;;5055813;28;20143;-56
2022/05/27 16:15:35;;;;;;;11.20;1.93;;;;;;;;;;5058866;28;20315;-58
2022/05/27 16:18:02;;;;;;;6.50;1.67;;;;;;;;;;5053774;28;20091;-58
2022/05/27 16:20:38;;;;;;;7.18;1.85;;;;;;;;;;5057741;28;20088;-57
2022/05/27 16:23:06;;;;;;;7.03;1.60;;;;;;;;;;5054876;28;20083;-58
2022/05/27 16:25:33;;;;;;;6.05;1.85;;;;;;;;;;5057158;28;20052;-55
2022/05/27 16:28:10;;;;;;;10.23;2.03;;;;;;;;;;5057957;28;20193;-57
2022/05/27 16:30:37;;;;;;;11.32;2.50;;;;;;;;;;5061555;28;20095;-57
2022/05/27 16:33:04;;;;;;;11.15;1.52;;;;;;;;;;5058014;28;20137;-57
2022/05/27 16:35:38;;;;;;;11.70;1.90;;;;;;;;;;5057627;28;20114;-57
2022/05/27 16:38:05;;;;;;;9.27;2.27;;;;;;;;;;5054993;28;20061;-58
2022/05/27 16:40:33;;;;;;;8.52;1.85;;;;;;;;;;5062038;28;20102;-58
2022/05/27 16:43:06;;;;;;;13.18;2.55;;;;;;;;;;5053013;28;20135;-58
2022/05/27 16:45:33;;;;;;;10.23;1.90;;;;;;;;;;5054320;28;20511;-56
2022/05/27 16:47:59;;;;;;;13.23;2.40;;;;;;;;;;5056777;28;20107;-54
2022/05/27 16:50:32;;;;;;;10.48;2.05;;;;;;;;;;5054257;28;20061;-56
2022/05/27 16:52:59;;;;;;;16.58;2.45;;;;;;;;;;5056805;28;20096;-57
2022/05/27 16:55:29;;;;;;;11.60;2.30;;;;;;;;;;5060214;28;20153;-55
2022/05/27 16:58:03;;;;;;;11.20;2.45;;;;;;;;;;5058526;28;20140;-57
2022/05/27 17:00:30;;;;;;;17.70;3.00;;;;;;;;;;5057068;28;20053;-56
2022/05/27 17:02:57;;;;;;;14.38;2.58;;;;;;;;;;5055734;28;20076;-53
2022/05/27 17:05:30;;;;;;;12.70;2.78;;;;;;;;;;5056116;28;20113;-59
2022/05/27 17:07:57;;;;;;;14.10;2.80;;;;;;;;;;5051370;28;20211;-54
2022/05/27 17:10:23;;;;;;;11.52;2.47;;;;;;;;;;5060381;28;20616;-54
2022/05/27 17:13:04;;;;;;;15.82;2.95;;;;;;;;;;5056840;28;20465;-54
2022/05/27 17:15:31;;;;;;;12.88;3.05;;;;;;;;;;5053555;28;20173;-52
2022/05/27 17:18:04;;;;;;;14.98;2.80;;;;;;;;;;5056431;28;20091;-52
2022/05/27 17:20:31;;;;;;;12.38;2.53;;;;;;;;;;5056343;28;20076;-50
2022/05/27 17:22:57;;;;;;;17.75;2.95;;;;;;;;;;5054639;28;20090;-51
2022/05/27 17:25:31;;;;;;;12.88;2.72;;;;;;;;;;5053483;28;20092;-49
2022/05/27 17:27:57;;;;;;;14.35;2.60;;;;;;;;;;5054386;28;20076;-50
2022/05/27 17:30:24;;;;;;;11.45;2.70;;;;;;;;;;5059408;28;20056;-48
2022/05/27 17:32:57;;;;;;;14.70;2.55;;;;;;;;;;5057766;28;20084;-52
2022/05/27 17:35:24;;;;;;;17.02;2.47;;;;;;;;;;5053425;28;20470;-50
2022/05/27 17:37:50;;;;;;;11.80;2.28;;;;;;;;;;5055494;28;20129;-52
2022/05/27 17:40:27;;;;;;;12.77;2.55;;;;;;;;;;5052610;28;20143;-53
2022/05/27 17:42:54;;;;;;;21.17;3.10;;;;;;;;;;5052411;28;20913;-54
2022/05/27 17:45:20;;;;;;;21.20;3.03;;;;;;;;;;5056998;28;20416;-58